sensor_id;sensor_type;location;lat;lon;timestamp;temperature;humidity
44767;DHT22;30487;48.716;9.272;2024-01-15T00:00:17;-0.60;99.90
44767;DHT22;30487;48.716;9.272;2024-01-15T00:02:42;-0.50;99.90
44767;DHT22;30487;48.716;9.272;2024-01-15T00:05:08;-0.50;99.90
44767;DHT22;30487;48.716;9.272;2024-01-15T00:07:34;-0.50;99.90
44767;DHT22;30487;48.716;9.272;2024-01-15T00:10:00;-0.50;99.90
44767;DHT22;30487;48.716;9.272;2024-01-15T00:12:25;-0.50;99.90
44767;DHT22;30487;48.716;9.272;2024-01-15T00:14:51;-0.50;99.90
44767;DHT22;30487;48.716;9.272;2024-01-15T00:17:17;-0.40;99.90
44767;DHT22;30487;48.716;9.272;2024-01-15T00:19:42;-0.40;99.90
44767;DHT22;30487;48.716;9.272;2024-01-15T00:22:08;-0.40;99.90
44767;DHT22;30487;48.716;9.272;2024-01-15T00:24:33;-0.40;99.90
44767;DHT22;30487;48.716;9.272;2024-01-15T00:26:59;-0.40;99.90
44767;DHT22;30487;48.716;9.272;2024-01-15T00:29:25;-0.40;99.90
44767;DHT22;30487;48.716;9.272;2024-01-15T00:31:50;-0.40;99.90
44767;DHT22;30487;48.716;9.272;2024-01-15T00:34:16;-0.50;99.90
44767;DHT22;30487;48.716;9.272;2024-01-15T00:36:42;-0.50;99.90
44767;DHT22;30487;48.716;9.272;2024-01-15T00:39:07;-0.50;99.90
44767;DHT22;30487;48.716;9.272;2024-01-15T00:41:33;-0.50;99.90
44767;DHT22;30487;48.716;9.272;2024-01-15T00:43:58;-0.50;99.90
44767;DHT22;30487;48.716;9.272;2024-01-15T00:46:24;-0.50;99.90
44767;DHT22;30487;48.716;9.272;2024-01-15T00:48:49;-0.50;99.90
44767;DHT22;30487;48.716;9.272;2024-01-15T00:51:15;-0.60;99.90
44767;DHT22;30487;48.716;9.272;2024-01-15T00:53:41;-0.60;99.90
44767;DHT22;30487;48.716;9.272;2024-01-15T00:56:06;-0.60;99.90
44767;DHT22;30487;48.716;9.272;2024-01-15T00:58:32;-0.60;99.90
44767;DHT22;30487;48.716;9.272;2024-01-15T01:00:57;-0.60;99.90
44767;DHT22;30487;48.716;9.272;2024-01-15T01:03:23;-0.60;99.90
44767;DHT22;30487;48.716;9.272;2024-01-15T01:05:49;-0.70;99.90
44767;DHT22;30487;48.716;9.272;2024-01-15T01:08:17;-0.70;99.90
44767;DHT22;30487;48.716;9.272;2024-01-15T01:10:43;-0.60;99.90
44767;DHT22;30487;48.716;9.272;2024-01-15T01:13:09;-0.60;99.90
44767;DHT22;30487;48.716;9.272;2024-01-15T01:15:34;-0.60;99.90
44767;DHT22;30487;48.716;9.272;2024-01-15T01:18:00;-0.60;99.90
44767;DHT22;30487;48.716;9.272;2024-01-15T01:20:26;-0.60;99.90
44767;DHT22;30487;48.716;9.272;2024-01-15T01:22:51;-0.60;99.90
44767;DHT22;30487;48.716;9.272;2024-01-15T01:25:17;-0.60;99.90
44767;DHT22;30487;48.716;9.272;2024-01-15T01:27:42;-0.70;99.90
44767;DHT22;30487;48.716;9.272;2024-01-15T01:30:08;-0.70;99.90
44767;DHT22;30487;48.716;9.272;2024-01-15T01:32:34;-0.70;99.90
44767;DHT22;30487;48.716;9.272;2024-01-15T01:35:00;-0.70;99.90
44767;DHT22;30487;48.716;9.272;2024-01-15T01:37:26;-0.70;99.90
44767;DHT22;30487;48.716;9.272;2024-01-15T01:39:51;-0.70;99.90
44767;DHT22;30487;48.716;9.272;2024-01-15T01:42:17;-0.60;99.90
44767;DHT22;30487;48.716;9.272;2024-01-15T01:44:42;-0.60;99.90
44767;DHT22;30487;48.716;9.272;2024-01-15T01:47:08;-0.50;99.90
44767;DHT22;30487;48.716;9.272;2024-01-15T01:49:34;-0.50;99.90
44767;DHT22;30487;48.716;9.272;2024-01-15T01:52:02;-0.50;99.90
44767;DHT22;30487;48.716;9.272;2024-01-15T01:54:31;-0.50;99.90
44767;DHT22;30487;48.716;9.272;2024-01-15T01:56:58;-0.50;99.90
44767;DHT22;30487;48.716;9.272;2024-01-15T01:59:26;-0.50;99.90
44767;DHT22;30487;48.716;9.272;2024-01-15T02:01:54;-0.50;99.90
44767;DHT22;30487;48.716;9.272;2024-01-15T02:04:20;-0.60;99.90
44767;DHT22;30487;48.716;9.272;2024-01-15T02:06:47;-0.60;99.90
44767;DHT22;30487;48.716;9.272;2024-01-15T02:09:13;-0.60;99.90
44767;DHT22;30487;48.716;9.272;2024-01-15T02:11:41;-0.50;99.90
44767;DHT22;30487;48.716;9.272;2024-01-15T02:14:07;-0.50;99.90
44767;DHT22;30487;48.716;9.272;2024-01-15T02:16:32;-0.40;99.90
44767;DHT22;30487;48.716;9.272;2024-01-15T02:18:58;-0.40;99.90
44767;DHT22;30487;48.716;9.272;2024-01-15T02:21:23;-0.40;99.90
44767;DHT22;30487;48.716;9.272;2024-01-15T02:23:51;-0.40;99.90
44767;DHT22;30487;48.716;9.272;2024-01-15T02:26:17;-0.40;99.90
44767;DHT22;30487;48.716;9.272;2024-01-15T02:28:43;-0.40;99.90
44767;DHT22;30487;48.716;9.272;2024-01-15T02:31:09;-0.40;99.90
44767;DHT22;30487;48.716;9.272;2024-01-15T02:33:35;-0.40;99.90
44767;DHT22;30487;48.716;9.272;2024-01-15T02:36:00;-0.50;99.90
44767;DHT22;30487;48.716;9.272;2024-01-15T02:38:26;-0.50;99.90
44767;DHT22;30487;48.716;9.272;2024-01-15T02:40:52;-0.40;99.90
44767;DHT22;30487;48.716;9.272;2024-01-15T02:43:17;-0.40;99.90
44767;DHT22;30487;48.716;9.272;2024-01-15T02:45:44;-0.40;99.90
44767;DHT22;30487;48.716;9.272;2024-01-15T02:48:10;-0.40;99.90
44767;DHT22;30487;48.716;9.272;2024-01-15T02:50:36;-0.40;99.90
44767;DHT22;30487;48.716;9.272;2024-01-15T02:53:01;-0.40;99.90
44767;DHT22;30487;48.716;9.272;2024-01-15T02:55:27;-0.40;99.90
44767;DHT22;30487;48.716;9.272;2024-01-15T02:57:54;-0.40;99.90
44767;DHT22;30487;48.716;9.272;2024-01-15T03:00:20;-0.40;99.90
44767;DHT22;30487;48.716;9.272;2024-01-15T03:02:46;-0.40;99.90
44767;DHT22;30487;48.716;9.272;2024-01-15T03:05:11;-0.50;99.90
44767;DHT22;30487;48.716;9.272;2024-01-15T03:07:37;-0.50;99.90
44767;DHT22;30487;48.716;9.272;2024-01-15T03:10:04;-0.50;99.90
44767;DHT22;30487;48.716;9.272;2024-01-15T03:12:30;-0.50;99.90
44767;DHT22;30487;48.716;9.272;2024-01-15T03:14:55;-0.50;99.90
44767;DHT22;30487;48.716;9.272;2024-01-15T03:17:21;-0.50;99.90
44767;DHT22;30487;48.716;9.272;2024-01-15T03:19:46;-0.50;99.90
44767;DHT22;30487;48.716;9.272;2024-01-15T03:22:12;-0.50;99.90
44767;DHT22;30487;48.716;9.272;2024-01-15T03:24:38;-0.60;99.90
44767;DHT22;30487;48.716;9.272;2024-01-15T03:27:03;-0.60;99.90
44767;DHT22;30487;48.716;9.272;2024-01-15T03:29:29;-0.60;99.90
44767;DHT22;30487;48.716;9.272;2024-01-15T03:31:54;-0.60;99.90
44767;DHT22;30487;48.716;9.272;2024-01-15T03:34:20;-0.60;99.90
44767;DHT22;30487;48.716;9.272;2024-01-15T03:36:45;-0.60;99.90
44767;DHT22;30487;48.716;9.272;2024-01-15T03:39:11;-0.70;99.90
44767;DHT22;30487;48.716;9.272;2024-01-15T03:41:37;-0.70;99.90
44767;DHT22;30487;48.716;9.272;2024-01-15T03:44:02;-0.70;99.90
44767;DHT22;30487;48.716;9.272;2024-01-15T03:46:28;-0.70;99.90
44767;DHT22;30487;48.716;9.272;2024-01-15T03:48:54;-0.70;99.90
44767;DHT22;30487;48.716;9.272;2024-01-15T03:51:19;-0.70;99.90
44767;DHT22;30487;48.716;9.272;2024-01-15T03:53:45;-0.70;99.90
44767;DHT22;30487;48.716;9.272;2024-01-15T03:56:11;-0.70;99.90
44767;DHT22;30487;48.716;9.272;2024-01-15T03:58:36;-0.70;99.90
44767;DHT22;30487;48.716;9.272;2024-01-15T04:01:02;-0.70;99.90
44767;DHT22;30487;48.716;9.272;2024-01-15T04:03:28;-0.60;99.90
44767;DHT22;30487;48.716;9.272;2024-01-15T04:05:54;-0.70;99.90
44767;DHT22;30487;48.716;9.272;2024-01-15T04:08:19;-0.60;99.90
44767;DHT22;30487;48.716;9.272;2024-01-15T04:10:45;-0.60;99.90
44767;DHT22;30487;48.716;9.272;2024-01-15T04:13:10;-0.60;99.90
44767;DHT22;30487;48.716;9.272;2024-01-15T04:15:36;-0.60;99.90
44767;DHT22;30487;48.716;9.272;2024-01-15T04:18:03;-0.60;99.90
44767;DHT22;30487;48.716;9.272;2024-01-15T04:20:28;-0.60;99.90
44767;DHT22;30487;48.716;9.272;2024-01-15T04:22:54;-0.60;99.90
44767;DHT22;30487;48.716;9.272;2024-01-15T04:25:19;-0.60;99.90
44767;DHT22;30487;48.716;9.272;2024-01-15T04:27:45;-0.60;99.90
44767;DHT22;30487;48.716;9.272;2024-01-15T04:30:11;-0.50;99.90
44767;DHT22;30487;48.716;9.272;2024-01-15T04:32:37;-0.50;99.90
44767;DHT22;30487;48.716;9.272;2024-01-15T04:35:02;-0.50;99.90
44767;DHT22;30487;48.716;9.272;2024-01-15T04:37:28;-0.50;99.90
44767;DHT22;30487;48.716;9.272;2024-01-15T04:39:54;-0.50;99.90
44767;DHT22;30487;48.716;9.272;2024-01-15T04:42:21;-0.40;99.90
44767;DHT22;30487;48.716;9.272;2024-01-15T04:44:47;-0.40;99.90
44767;DHT22;30487;48.716;9.272;2024-01-15T04:47:12;-0.40;99.90
44767;DHT22;30487;48.716;9.272;2024-01-15T04:49:38;-0.40;99.90
44767;DHT22;30487;48.716;9.272;2024-01-15T04:52:03;-0.40;99.90
44767;DHT22;30487;48.716;9.272;2024-01-15T04:54:29;-0.40;99.90
44767;DHT22;30487;48.716;9.272;2024-01-15T04:56:54;-0.30;99.90
44767;DHT22;30487;48.716;9.272;2024-01-15T04:59:20;-0.30;99.90
44767;DHT22;30487;48.716;9.272;2024-01-15T05:01:46;-0.30;99.90
44767;DHT22;30487;48.716;9.272;2024-01-15T05:04:12;-0.30;99.90
44767;DHT22;30487;48.716;9.272;2024-01-15T05:06:38;-0.20;99.90
44767;DHT22;30487;48.716;9.272;2024-01-15T05:09:03;-0.20;99.90
44767;DHT22;30487;48.716;9.272;2024-01-15T05:11:30;-0.20;99.90
44767;DHT22;30487;48.716;9.272;2024-01-15T05:13:55;-0.20;99.90
44767;DHT22;30487;48.716;9.272;2024-01-15T05:16:21;-0.10;99.90
44767;DHT22;30487;48.716;9.272;2024-01-15T05:18:46;-0.20;99.90
44767;DHT22;30487;48.716;9.272;2024-01-15T05:21:12;-0.10;99.90
44767;DHT22;30487;48.716;9.272;2024-01-15T05:23:38;-0.10;99.90
44767;DHT22;30487;48.716;9.272;2024-01-15T05:26:03;-0.10;99.90
44767;DHT22;30487;48.716;9.272;2024-01-15T05:28:29;-0.10;99.90
44767;DHT22;30487;48.716;9.272;2024-01-15T05:30:55;-0.10;99.90
44767;DHT22;30487;48.716;9.272;2024-01-15T05:33:21;-0.10;99.90
44767;DHT22;30487;48.716;9.272;2024-01-15T05:35:47;-0.10;99.90
44767;DHT22;30487;48.716;9.272;2024-01-15T05:38:13;0.00;99.90
44767;DHT22;30487;48.716;9.272;2024-01-15T05:40:38;0.00;99.90
44767;DHT22;30487;48.716;9.272;2024-01-15T05:43:04;0.00;99.90
44767;DHT22;30487;48.716;9.272;2024-01-15T05:45:30;0.00;99.90
44767;DHT22;30487;48.716;9.272;2024-01-15T05:47:56;0.00;99.90
44767;DHT22;30487;48.716;9.272;2024-01-15T05:50:22;-0.10;99.90
44767;DHT22;30487;48.716;9.272;2024-01-15T05:52:48;0.00;99.90
44767;DHT22;30487;48.716;9.272;2024-01-15T05:55:13;0.00;99.90
44767;DHT22;30487;48.716;9.272;2024-01-15T05:57:39;-0.10;99.90
44767;DHT22;30487;48.716;9.272;2024-01-15T06:00:05;0.00;99.90
44767;DHT22;30487;48.716;9.272;2024-01-15T06:02:31;-0.10;99.90
44767;DHT22;30487;48.716;9.272;2024-01-15T06:04:57;-0.10;99.90
44767;DHT22;30487;48.716;9.272;2024-01-15T06:07:23;0.00;99.90
44767;DHT22;30487;48.716;9.272;2024-01-15T06:09:48;0.00;99.90
44767;DHT22;30487;48.716;9.272;2024-01-15T06:12:14;-0.10;99.90
44767;DHT22;30487;48.716;9.272;2024-01-15T06:14:39;0.00;99.90
44767;DHT22;30487;48.716;9.272;2024-01-15T06:17:06;-0.10;99.90
44767;DHT22;30487;48.716;9.272;2024-01-15T06:19:32;0.00;99.90
44767;DHT22;30487;48.716;9.272;2024-01-15T06:21:58;0.00;99.90
44767;DHT22;30487;48.716;9.272;2024-01-15T06:24:23;0.00;99.90
44767;DHT22;30487;48.716;9.272;2024-01-15T06:26:49;0.00;99.90
44767;DHT22;30487;48.716;9.272;2024-01-15T06:29:15;0.00;99.90
44767;DHT22;30487;48.716;9.272;2024-01-15T06:31:40;0.00;99.90
44767;DHT22;30487;48.716;9.272;2024-01-15T06:34:06;0.00;99.90
44767;DHT22;30487;48.716;9.272;2024-01-15T06:36:31;0.00;99.90
44767;DHT22;30487;48.716;9.272;2024-01-15T06:38:57;0.00;99.90
44767;DHT22;30487;48.716;9.272;2024-01-15T06:41:22;0.00;99.90
44767;DHT22;30487;48.716;9.272;2024-01-15T06:43:48;0.00;99.90
44767;DHT22;30487;48.716;9.272;2024-01-15T06:46:20;0.00;99.90
44767;DHT22;30487;48.716;9.272;2024-01-15T06:48:46;-0.10;99.90
44767;DHT22;30487;48.716;9.272;2024-01-15T06:51:12;-0.10;99.90
44767;DHT22;30487;48.716;9.272;2024-01-15T06:53:37;0.00;99.90
44767;DHT22;30487;48.716;9.272;2024-01-15T06:56:03;0.00;99.90
44767;DHT22;30487;48.716;9.272;2024-01-15T06:58:31;0.00;99.90
44767;DHT22;30487;48.716;9.272;2024-01-15T07:00:56;0.00;99.90
44767;DHT22;30487;48.716;9.272;2024-01-15T07:03:22;0.00;99.90
44767;DHT22;30487;48.716;9.272;2024-01-15T07:05:47;-0.10;99.90
44767;DHT22;30487;48.716;9.272;2024-01-15T07:08:13;0.00;99.90
44767;DHT22;30487;48.716;9.272;2024-01-15T07:10:38;0.00;99.90
44767;DHT22;30487;48.716;9.272;2024-01-15T07:13:04;0.00;99.90
44767;DHT22;30487;48.716;9.272;2024-01-15T07:15:31;0.00;99.90
44767;DHT22;30487;48.716;9.272;2024-01-15T07:17:56;0.00;99.90
44767;DHT22;30487;48.716;9.272;2024-01-15T07:20:22;0.00;99.90
44767;DHT22;30487;48.716;9.272;2024-01-15T07:22:48;0.00;99.90
44767;DHT22;30487;48.716;9.272;2024-01-15T07:25:13;0.10;99.90
44767;DHT22;30487;48.716;9.272;2024-01-15T07:27:39;0.10;99.90
44767;DHT22;30487;48.716;9.272;2024-01-15T07:30:05;0.10;99.90
44767;DHT22;30487;48.716;9.272;2024-01-15T07:32:31;0.10;99.90
44767;DHT22;30487;48.716;9.272;2024-01-15T07:34:57;0.20;99.90
44767;DHT22;30487;48.716;9.272;2024-01-15T07:37:24;0.10;99.90
44767;DHT22;30487;48.716;9.272;2024-01-15T07:39:50;0.10;99.90
44767;DHT22;30487;48.716;9.272;2024-01-15T07:42:16;0.20;99.90
44767;DHT22;30487;48.716;9.272;2024-01-15T07:44:41;0.20;99.90
44767;DHT22;30487;48.716;9.272;2024-01-15T07:47:07;0.20;99.90
44767;DHT22;30487;48.716;9.272;2024-01-15T07:49:34;0.20;99.90
44767;DHT22;30487;48.716;9.272;2024-01-15T07:52:00;0.20;99.90
44767;DHT22;30487;48.716;9.272;2024-01-15T07:54:25;0.20;99.90
44767;DHT22;30487;48.716;9.272;2024-01-15T07:57:01;0.20;99.90
44767;DHT22;30487;48.716;9.272;2024-01-15T07:59:28;0.20;99.90
44767;DHT22;30487;48.716;9.272;2024-01-15T08:01:54;0.20;99.90
44767;DHT22;30487;48.716;9.272;2024-01-15T08:04:20;0.20;99.90
44767;DHT22;30487;48.716;9.272;2024-01-15T08:06:46;0.20;99.90
44767;DHT22;30487;48.716;9.272;2024-01-15T08:09:12;0.30;99.90
44767;DHT22;30487;48.716;9.272;2024-01-15T08:11:40;0.30;99.90
44767;DHT22;30487;48.716;9.272;2024-01-15T08:14:07;0.30;99.90
44767;DHT22;30487;48.716;9.272;2024-01-15T08:16:33;0.30;99.90
44767;DHT22;30487;48.716;9.272;2024-01-15T08:18:59;0.30;99.90
44767;DHT22;30487;48.716;9.272;2024-01-15T08:21:24;0.40;99.90
44767;DHT22;30487;48.716;9.272;2024-01-15T08:23:50;0.40;99.90
44767;DHT22;30487;48.716;9.272;2024-01-15T08:26:18;0.40;99.90
44767;DHT22;30487;48.716;9.272;2024-01-15T08:28:44;0.50;99.90
44767;DHT22;30487;48.716;9.272;2024-01-15T08:31:09;0.50;99.90
44767;DHT22;30487;48.716;9.272;2024-01-15T08:33:35;0.40;99.90
44767;DHT22;30487;48.716;9.272;2024-01-15T08:36:01;0.40;99.90
44767;DHT22;30487;48.716;9.272;2024-01-15T08:38:28;0.50;99.90
44767;DHT22;30487;48.716;9.272;2024-01-15T08:40:53;0.50;99.90
44767;DHT22;30487;48.716;9.272;2024-01-15T08:43:22;0.60;99.90
44767;DHT22;30487;48.716;9.272;2024-01-15T08:45:47;0.60;99.90
44767;DHT22;30487;48.716;9.272;2024-01-15T08:48:13;0.60;99.90
44767;DHT22;30487;48.716;9.272;2024-01-15T08:50:39;0.60;99.90
44767;DHT22;30487;48.716;9.272;2024-01-15T08:53:04;0.60;99.90
44767;DHT22;30487;48.716;9.272;2024-01-15T08:55:30;0.70;99.90
44767;DHT22;30487;48.716;9.272;2024-01-15T08:57:56;0.70;99.90
44767;DHT22;30487;48.716;9.272;2024-01-15T09:00:21;0.80;99.90
44767;DHT22;30487;48.716;9.272;2024-01-15T09:02:47;0.80;99.90
44767;DHT22;30487;48.716;9.272;2024-01-15T09:05:12;0.90;99.90
44767;DHT22;30487;48.716;9.272;2024-01-15T09:07:38;0.90;99.90
44767;DHT22;30487;48.716;9.272;2024-01-15T09:10:04;0.90;99.90
44767;DHT22;30487;48.716;9.272;2024-01-15T09:12:30;0.90;99.90
44767;DHT22;30487;48.716;9.272;2024-01-15T09:14:55;1.00;99.90
44767;DHT22;30487;48.716;9.272;2024-01-15T09:17:21;1.00;99.90
44767;DHT22;30487;48.716;9.272;2024-01-15T09:19:49;1.00;99.90
44767;DHT22;30487;48.716;9.272;2024-01-15T09:22:15;1.10;99.90
44767;DHT22;30487;48.716;9.272;2024-01-15T09:24:46;1.10;99.90
44767;DHT22;30487;48.716;9.272;2024-01-15T09:27:13;1.10;99.90
44767;DHT22;30487;48.716;9.272;2024-01-15T09:29:38;1.10;99.90
44767;DHT22;30487;48.716;9.272;2024-01-15T09:32:06;1.10;99.90
44767;DHT22;30487;48.716;9.272;2024-01-15T09:34:33;1.20;99.90
44767;DHT22;30487;48.716;9.272;2024-01-15T09:36:59;1.20;99.90
44767;DHT22;30487;48.716;9.272;2024-01-15T09:39:25;1.20;99.90
44767;DHT22;30487;48.716;9.272;2024-01-15T09:41:52;1.30;99.90
44767;DHT22;30487;48.716;9.272;2024-01-15T09:44:19;1.30;99.90
44767;DHT22;30487;48.716;9.272;2024-01-15T09:46:45;1.30;99.90
44767;DHT22;30487;48.716;9.272;2024-01-15T09:49:12;1.40;99.90
44767;DHT22;30487;48.716;9.272;2024-01-15T09:51:39;1.40;99.90
44767;DHT22;30487;48.716;9.272;2024-01-15T09:54:05;1.40;99.90
44767;DHT22;30487;48.716;9.272;2024-01-15T09:56:31;1.50;99.90
44767;DHT22;30487;48.716;9.272;2024-01-15T09:58:57;1.60;99.90
44767;DHT22;30487;48.716;9.272;2024-01-15T10:01:23;1.60;99.90
44767;DHT22;30487;48.716;9.272;2024-01-15T10:03:50;1.60;99.90
44767;DHT22;30487;48.716;9.272;2024-01-15T10:06:16;1.60;99.90
44767;DHT22;30487;48.716;9.272;2024-01-15T10:08:49;1.60;99.90
44767;DHT22;30487;48.716;9.272;2024-01-15T10:11:15;1.60;99.90
44767;DHT22;30487;48.716;9.272;2024-01-15T10:13:40;1.60;99.90
44767;DHT22;30487;48.716;9.272;2024-01-15T10:16:06;1.70;99.90
44767;DHT22;30487;48.716;9.272;2024-01-15T10:18:32;1.70;99.90
44767;DHT22;30487;48.716;9.272;2024-01-15T10:20:58;1.70;99.90
44767;DHT22;30487;48.716;9.272;2024-01-15T10:23:27;1.70;99.90
44767;DHT22;30487;48.716;9.272;2024-01-15T10:25:52;1.70;99.90
44767;DHT22;30487;48.716;9.272;2024-01-15T10:28:19;1.70;99.90
44767;DHT22;30487;48.716;9.272;2024-01-15T10:30:45;1.70;99.90
44767;DHT22;30487;48.716;9.272;2024-01-15T10:33:10;1.70;99.90
44767;DHT22;30487;48.716;9.272;2024-01-15T10:35:38;1.70;99.90
44767;DHT22;30487;48.716;9.272;2024-01-15T10:38:06;1.70;99.90
44767;DHT22;30487;48.716;9.272;2024-01-15T10:40:32;1.70;99.90
44767;DHT22;30487;48.716;9.272;2024-01-15T10:42:58;1.70;99.90
44767;DHT22;30487;48.716;9.272;2024-01-15T10:45:24;1.70;99.90
44767;DHT22;30487;48.716;9.272;2024-01-15T10:47:50;1.70;99.90
44767;DHT22;30487;48.716;9.272;2024-01-15T10:50:16;1.70;99.90
44767;DHT22;30487;48.716;9.272;2024-01-15T10:52:42;1.80;99.90
44767;DHT22;30487;48.716;9.272;2024-01-15T10:55:09;1.80;99.90
44767;DHT22;30487;48.716;9.272;2024-01-15T10:57:36;1.80;99.90
44767;DHT22;30487;48.716;9.272;2024-01-15T11:00:03;1.70;99.90
44767;DHT22;30487;48.716;9.272;2024-01-15T11:02:34;1.80;99.90
44767;DHT22;30487;48.716;9.272;2024-01-15T11:05:00;1.80;99.90
44767;DHT22;30487;48.716;9.272;2024-01-15T11:07:26;1.80;99.90
44767;DHT22;30487;48.716;9.272;2024-01-15T11:09:52;1.80;99.90
44767;DHT22;30487;48.716;9.272;2024-01-15T11:12:18;1.80;99.90
44767;DHT22;30487;48.716;9.272;2024-01-15T11:14:49;1.80;99.90
44767;DHT22;30487;48.716;9.272;2024-01-15T11:17:16;1.90;99.90
44767;DHT22;30487;48.716;9.272;2024-01-15T11:19:42;1.90;99.90
44767;DHT22;30487;48.716;9.272;2024-01-15T11:22:09;1.80;99.90
44767;DHT22;30487;48.716;9.272;2024-01-15T11:24:38;1.80;99.90
44767;DHT22;30487;48.716;9.272;2024-01-15T11:27:05;1.80;99.90
44767;DHT22;30487;48.716;9.272;2024-01-15T11:29:35;1.80;99.90
44767;DHT22;30487;48.716;9.272;2024-01-15T11:32:03;1.80;99.90
44767;DHT22;30487;48.716;9.272;2024-01-15T11:34:52;1.90;99.90
44767;DHT22;30487;48.716;9.272;2024-01-15T11:37:19;1.90;99.90
44767;DHT22;30487;48.716;9.272;2024-01-15T11:39:45;1.90;99.90
44767;DHT22;30487;48.716;9.272;2024-01-15T11:42:12;1.90;99.90
44767;DHT22;30487;48.716;9.272;2024-01-15T11:44:39;1.90;99.90
44767;DHT22;30487;48.716;9.272;2024-01-15T11:47:09;1.90;99.90
44767;DHT22;30487;48.716;9.272;2024-01-15T11:50:02;1.90;99.90
44767;DHT22;30487;48.716;9.272;2024-01-15T11:52:38;2.00;99.90
44767;DHT22;30487;48.716;9.272;2024-01-15T11:55:22;2.00;99.90
44767;DHT22;30487;48.716;9.272;2024-01-15T11:57:52;2.00;99.90
44767;DHT22;30487;48.716;9.272;2024-01-15T12:00:20;2.00;99.90
44767;DHT22;30487;48.716;9.272;2024-01-15T12:02:47;2.00;99.90
44767;DHT22;30487;48.716;9.272;2024-01-15T12:05:15;2.00;99.90
44767;DHT22;30487;48.716;9.272;2024-01-15T12:07:43;2.00;99.90
44767;DHT22;30487;48.716;9.272;2024-01-15T12:10:19;2.00;99.90
44767;DHT22;30487;48.716;9.272;2024-01-15T12:13:02;2.00;99.90
44767;DHT22;30487;48.716;9.272;2024-01-15T12:15:30;2.00;99.90
44767;DHT22;30487;48.716;9.272;2024-01-15T12:17:56;1.90;99.90
44767;DHT22;30487;48.716;9.272;2024-01-15T12:20:26;1.90;99.90
44767;DHT22;30487;48.716;9.272;2024-01-15T12:22:52;1.90;99.90
44767;DHT22;30487;48.716;9.272;2024-01-15T12:25:18;1.80;99.90
44767;DHT22;30487;48.716;9.272;2024-01-15T12:27:44;1.80;99.90
44767;DHT22;30487;48.716;9.272;2024-01-15T12:30:13;1.70;99.90
44767;DHT22;30487;48.716;9.272;2024-01-15T12:32:40;1.60;99.90
44767;DHT22;30487;48.716;9.272;2024-01-15T12:35:07;1.60;99.90
44767;DHT22;30487;48.716;9.272;2024-01-15T12:37:44;1.50;99.90
44767;DHT22;30487;48.716;9.272;2024-01-15T12:40:12;1.40;99.90
44767;DHT22;30487;48.716;9.272;2024-01-15T12:42:40;1.30;99.90
44767;DHT22;30487;48.716;9.272;2024-01-15T12:45:06;1.30;99.90
44767;DHT22;30487;48.716;9.272;2024-01-15T12:47:32;1.30;99.90
44767;DHT22;30487;48.716;9.272;2024-01-15T12:49:58;1.20;99.90
44767;DHT22;30487;48.716;9.272;2024-01-15T12:52:27;1.20;99.90
44767;DHT22;30487;48.716;9.272;2024-01-15T12:54:52;1.20;99.90
44767;DHT22;30487;48.716;9.272;2024-01-15T12:57:18;1.10;99.90
44767;DHT22;30487;48.716;9.272;2024-01-15T12:59:44;1.10;99.90
44767;DHT22;30487;48.716;9.272;2024-01-15T13:02:11;1.20;99.90
44767;DHT22;30487;48.716;9.272;2024-01-15T13:04:37;1.20;99.90
44767;DHT22;30487;48.716;9.272;2024-01-15T13:07:03;1.20;99.90
44767;DHT22;30487;48.716;9.272;2024-01-15T13:09:28;1.20;99.90
44767;DHT22;30487;48.716;9.272;2024-01-15T13:11:55;1.20;99.90
44767;DHT22;30487;48.716;9.272;2024-01-15T13:14:21;1.20;99.90
44767;DHT22;30487;48.716;9.272;2024-01-15T13:16:46;1.20;99.90
44767;DHT22;30487;48.716;9.272;2024-01-15T13:19:12;1.20;99.90
44767;DHT22;30487;48.716;9.272;2024-01-15T13:21:39;1.20;99.90
44767;DHT22;30487;48.716;9.272;2024-01-15T13:24:05;1.20;99.90
44767;DHT22;30487;48.716;9.272;2024-01-15T13:26:34;1.20;99.90
44767;DHT22;30487;48.716;9.272;2024-01-15T13:29:03;1.10;99.90
44767;DHT22;30487;48.716;9.272;2024-01-15T13:31:32;1.20;99.90
44767;DHT22;30487;48.716;9.272;2024-01-15T13:33:58;1.10;99.90
44767;DHT22;30487;48.716;9.272;2024-01-15T13:36:25;1.10;99.90
44767;DHT22;30487;48.716;9.272;2024-01-15T13:38:51;1.10;99.90
44767;DHT22;30487;48.716;9.272;2024-01-15T13:41:17;1.10;99.90
44767;DHT22;30487;48.716;9.272;2024-01-15T13:43:53;1.10;99.90
44767;DHT22;30487;48.716;9.272;2024-01-15T13:46:20;1.10;99.90
44767;DHT22;30487;48.716;9.272;2024-01-15T13:48:46;1.10;99.90
44767;DHT22;30487;48.716;9.272;2024-01-15T13:51:11;1.10;99.90
44767;DHT22;30487;48.716;9.272;2024-01-15T13:53:40;1.10;99.90
44767;DHT22;30487;48.716;9.272;2024-01-15T13:56:06;1.10;99.90
44767;DHT22;30487;48.716;9.272;2024-01-15T13:58:32;1.10;99.90
44767;DHT22;30487;48.716;9.272;2024-01-15T14:00:59;1.10;99.90
44767;DHT22;30487;48.716;9.272;2024-01-15T14:03:24;1.00;99.90
44767;DHT22;30487;48.716;9.272;2024-01-15T14:05:51;1.00;99.90
44767;DHT22;30487;48.716;9.272;2024-01-15T14:08:17;1.00;99.90
44767;DHT22;30487;48.716;9.272;2024-01-15T14:10:43;1.00;99.90
44767;DHT22;30487;48.716;9.272;2024-01-15T14:13:08;1.00;99.90
44767;DHT22;30487;48.716;9.272;2024-01-15T14:15:34;1.00;99.90
44767;DHT22;30487;48.716;9.272;2024-01-15T14:18:00;1.00;99.90
44767;DHT22;30487;48.716;9.272;2024-01-15T14:20:26;0.90;99.90
44767;DHT22;30487;48.716;9.272;2024-01-15T14:22:53;0.90;99.90
44767;DHT22;30487;48.716;9.272;2024-01-15T14:25:19;0.90;99.90
44767;DHT22;30487;48.716;9.272;2024-01-15T14:27:45;0.90;99.90
44767;DHT22;30487;48.716;9.272;2024-01-15T14:30:11;0.90;99.90
44767;DHT22;30487;48.716;9.272;2024-01-15T14:32:39;0.90;99.90
44767;DHT22;30487;48.716;9.272;2024-01-15T14:35:05;0.90;99.90
44767;DHT22;30487;48.716;9.272;2024-01-15T14:37:31;0.80;99.90
44767;DHT22;30487;48.716;9.272;2024-01-15T14:39:56;0.80;99.90
44767;DHT22;30487;48.716;9.272;2024-01-15T14:42:22;0.80;99.90
44767;DHT22;30487;48.716;9.272;2024-01-15T14:44:49;0.80;99.90
44767;DHT22;30487;48.716;9.272;2024-01-15T14:47:15;0.90;99.90
44767;DHT22;30487;48.716;9.272;2024-01-15T14:49:40;0.80;99.90
44767;DHT22;30487;48.716;9.272;2024-01-15T14:52:06;0.80;99.90
44767;DHT22;30487;48.716;9.272;2024-01-15T14:54:32;0.80;99.90
44767;DHT22;30487;48.716;9.272;2024-01-15T14:56:57;0.80;99.90
44767;DHT22;30487;48.716;9.272;2024-01-15T14:59:23;0.80;99.90
44767;DHT22;30487;48.716;9.272;2024-01-15T15:01:49;0.80;99.90
44767;DHT22;30487;48.716;9.272;2024-01-15T15:04:14;0.80;99.90
44767;DHT22;30487;48.716;9.272;2024-01-15T15:06:40;0.70;99.90
44767;DHT22;30487;48.716;9.272;2024-01-15T15:09:05;0.70;99.90
44767;DHT22;30487;48.716;9.272;2024-01-15T15:11:35;0.70;99.90
44767;DHT22;30487;48.716;9.272;2024-01-15T15:14:02;0.70;99.90
44767;DHT22;30487;48.716;9.272;2024-01-15T15:16:29;0.70;99.90
44767;DHT22;30487;48.716;9.272;2024-01-15T15:18:55;0.70;99.90
44767;DHT22;30487;48.716;9.272;2024-01-15T15:21:20;0.70;99.90
44767;DHT22;30487;48.716;9.272;2024-01-15T15:23:46;0.70;99.90
44767;DHT22;30487;48.716;9.272;2024-01-15T15:26:13;0.70;99.90
44767;DHT22;30487;48.716;9.272;2024-01-15T15:28:38;0.60;99.90
44767;DHT22;30487;48.716;9.272;2024-01-15T15:31:06;0.60;99.90
44767;DHT22;30487;48.716;9.272;2024-01-15T15:33:38;0.60;99.90